sensor_id;sensor_type;location;lat;lon;timestamp;pressure;altitude;pressure_sealevel;temperature;humidity
3434;BME280;1730;41.932;25.548;2023-06-14T00:01:44;98960.25;;;20.81;100.00
3434;BME280;1730;41.932;25.548;2023-06-14T00:04:12;98953.59;;;20.89;100.00
3434;BME280;1730;41.932;25.548;2023-06-14T00:06:39;98947.59;;;20.80;100.00
3434;BME280;1730;41.932;25.548;2023-06-14T00:09:06;98914.75;;;20.62;100.00
3434;BME280;1730;41.932;25.548;2023-06-14T00:11:33;98947.31;;;20.88;100.00
3434;BME280;1730;41.932;25.548;2023-06-14T00:13:59;98973.41;;;20.73;100.00
3434;BME280;1730;41.932;25.548;2023-06-14T00:16:24;98997.00;;;20.55;100.00
3434;BME280;1730;41.932;25.548;2023-06-14T00:18:50;99035.56;;;20.36;100.00
3434;BME280;1730;41.932;25.548;2023-06-14T00:21:17;99054.66;;;20.42;100.00
3434;BME280;1730;41.932;25.548;2023-06-14T00:23:43;99072.94;;;20.48;100.00
3434;BME280;1730;41.932;25.548;2023-06-14T00:26:08;99075.84;;;20.53;100.00
3434;BME280;1730;41.932;25.548;2023-06-14T00:28:34;99051.69;;;20.44;100.00
3434;BME280;1730;41.932;25.548;2023-06-14T00:30:59;99079.66;;;20.52;100.00
3434;BME280;1730;41.932;25.548;2023-06-14T00:33:25;99082.00;;;20.49;100.00
3434;BME280;1730;41.932;25.548;2023-06-14T00:35:51;99000.16;;;20.09;100.00
3434;BME280;1730;41.932;25.548;2023-06-14T00:38:20;99079.91;;;20.69;100.00
3434;BME280;1730;41.932;25.548;2023-06-14T00:40:46;99091.22;;;20.54;100.00
3434;BME280;1730;41.932;25.548;2023-06-14T00:43:11;99095.75;;;20.42;100.00
3434;BME280;1730;41.932;25.548;2023-06-14T00:45:37;99101.69;;;20.39;100.00
3434;BME280;1730;41.932;25.548;2023-06-14T00:48:04;99113.53;;;20.27;100.00
3434;BME280;1730;41.932;25.548;2023-06-14T00:50:32;99106.31;;;20.39;100.00
3434;BME280;1730;41.932;25.548;2023-06-14T00:52:59;99110.53;;;20.66;100.00
3434;BME280;1730;41.932;25.548;2023-06-14T00:55:26;99103.75;;;20.68;100.00
3434;BME280;1730;41.932;25.548;2023-06-14T00:57:53;99094.69;;;20.68;100.00
3434;BME280;1730;41.932;25.548;2023-06-14T01:00:18;99089.16;;;20.75;100.00
3434;BME280;1730;41.932;25.548;2023-06-14T01:02:44;99001.47;;;20.25;100.00
3434;BME280;1730;41.932;25.548;2023-06-14T01:05:10;98849.25;;;18.87;100.00
3434;BME280;1730;41.932;25.548;2023-06-14T01:11:10;99120.94;;;20.19;100.00
3434;BME280;1730;41.932;25.548;2023-06-14T01:13:39;99148.88;;;20.66;100.00
3434;BME280;1730;41.932;25.548;2023-06-14T01:16:08;99115.38;;;20.64;100.00
3434;BME280;1730;41.932;25.548;2023-06-14T01:18:34;98915.38;;;19.40;100.00
3434;BME280;1730;41.932;25.548;2023-06-14T01:21:00;99102.34;;;20.59;100.00
3434;BME280;1730;41.932;25.548;2023-06-14T01:23:31;99112.47;;;20.34;100.00
3434;BME280;1730;41.932;25.548;2023-06-14T01:25:58;99147.56;;;20.06;100.00
3434;BME280;1730;41.932;25.548;2023-06-14T01:28:27;99181.62;;;19.72;100.00
3434;BME280;1730;41.932;25.548;2023-06-14T01:31:01;99248.75;;;19.88;100.00
3434;BME280;1730;41.932;25.548;2023-06-14T01:33:29;99201.59;;;19.79;100.00
3434;BME280;1730;41.932;25.548;2023-06-14T01:35:56;99235.81;;;20.08;100.00
3434;BME280;1730;41.932;25.548;2023-06-14T01:38:25;99231.84;;;20.04;100.00
3434;BME280;1730;41.932;25.548;2023-06-14T01:40:53;99198.59;;;19.94;100.00
3434;BME280;1730;41.932;25.548;2023-06-14T01:43:21;99120.06;;;19.36;100.00
3434;BME280;1730;41.932;25.548;2023-06-14T01:45:48;99256.06;;;19.94;100.00
3434;BME280;1730;41.932;25.548;2023-06-14T01:48:16;99059.91;;;18.72;100.00
3434;BME280;1730;41.932;25.548;2023-06-14T01:50:42;99274.25;;;19.68;100.00
3434;BME280;1730;41.932;25.548;2023-06-14T01:53:08;99270.47;;;19.63;100.00
3434;BME280;1730;41.932;25.548;2023-06-14T01:55:34;99309.78;;;19.88;100.00
3434;BME280;1730;41.932;25.548;2023-06-14T01:58:05;99322.41;;;19.89;100.00
3434;BME280;1730;41.932;25.548;2023-06-14T02:00:31;99278.03;;;19.67;100.00
3434;BME280;1730;41.932;25.548;2023-06-14T02:02:56;99323.06;;;19.91;100.00
3434;BME280;1730;41.932;25.548;2023-06-14T02:05:22;99245.91;;;18.97;100.00
3434;BME280;1730;41.932;25.548;2023-06-14T02:07:48;99341.41;;;19.45;100.00
3434;BME280;1730;41.932;25.548;2023-06-14T02:10:14;99251.38;;;18.77;100.00
3434;BME280;1730;41.932;25.548;2023-06-14T02:12:40;99374.88;;;19.60;100.00
3434;BME280;1730;41.932;25.548;2023-06-14T02:15:06;99260.19;;;18.92;100.00
3434;BME280;1730;41.932;25.548;2023-06-14T02:17:32;99373.41;;;19.64;100.00
3434;BME280;1730;41.932;25.548;2023-06-14T02:19:58;99374.00;;;19.99;100.00
3434;BME280;1730;41.932;25.548;2023-06-14T02:22:23;99351.69;;;19.89;100.00
3434;BME280;1730;41.932;25.548;2023-06-14T02:24:49;99360.31;;;19.99;100.00
3434;BME280;1730;41.932;25.548;2023-06-14T02:27:15;99329.91;;;20.20;100.00
3434;BME280;1730;41.932;25.548;2023-06-14T02:29:41;99304.00;;;20.16;100.00
3434;BME280;1730;41.932;25.548;2023-06-14T02:32:06;99294.50;;;20.18;100.00
3434;BME280;1730;41.932;25.548;2023-06-14T02:34:35;99304.25;;;20.01;100.00
3434;BME280;1730;41.932;25.548;2023-06-14T02:37:01;99263.88;;;19.84;100.00
3434;BME280;1730;41.932;25.548;2023-06-14T02:39:28;99306.34;;;20.12;100.00
3434;BME280;1730;41.932;25.548;2023-06-14T02:41:54;99308.25;;;20.05;100.00
3434;BME280;1730;41.932;25.548;2023-06-14T02:44:24;99297.75;;;20.02;100.00
3434;BME280;1730;41.932;25.548;2023-06-14T02:46:53;99319.06;;;19.87;100.00
3434;BME280;1730;41.932;25.548;2023-06-14T02:49:21;99352.78;;;19.61;100.00
3434;BME280;1730;41.932;25.548;2023-06-14T02:51:46;99393.16;;;19.53;100.00
3434;BME280;1730;41.932;25.548;2023-06-14T02:54:12;99291.38;;;18.44;100.00
3434;BME280;1730;41.932;25.548;2023-06-14T02:56:37;99367.13;;;18.70;100.00
3434;BME280;1730;41.932;25.548;2023-06-14T02:59:03;99336.34;;;18.48;100.00
3434;BME280;1730;41.932;25.548;2023-06-14T03:01:29;99355.63;;;18.81;100.00
3434;BME280;1730;41.932;25.548;2023-06-14T03:04:01;99476.00;;;19.27;100.00
3434;BME280;1730;41.932;25.548;2023-06-14T03:06:29;99408.31;;;18.68;100.00
3434;BME280;1730;41.932;25.548;2023-06-14T03:08:59;99536.34;;;19.19;100.00
3434;BME280;1730;41.932;25.548;2023-06-14T03:11:25;99562.25;;;19.29;100.00
3434;BME280;1730;41.932;25.548;2023-06-14T03:13:52;99567.50;;;19.31;100.00
3434;BME280;1730;41.932;25.548;2023-06-14T03:16:18;99608.56;;;19.37;100.00
3434;BME280;1730;41.932;25.548;2023-06-14T03:18:50;99590.59;;;19.15;100.00
3434;BME280;1730;41.932;25.548;2023-06-14T03:21:15;99602.38;;;19.22;100.00
3434;BME280;1730;41.932;25.548;2023-06-14T03:23:42;99574.97;;;19.50;100.00
3434;BME280;1730;41.932;25.548;2023-06-14T03:26:09;99444.94;;;18.87;100.00
3434;BME280;1730;41.932;25.548;2023-06-14T03:28:35;99538.03;;;19.94;100.00
3434;BME280;1730;41.932;25.548;2023-06-14T03:31:01;99475.91;;;20.07;100.00
3434;BME280;1730;41.932;25.548;2023-06-14T03:33:27;99386.38;;;20.14;100.00
3434;BME280;1730;41.932;25.548;2023-06-14T03:35:53;99304.00;;;20.16;100.00
3434;BME280;1730;41.932;25.548;2023-06-14T03:38:18;99298.19;;;20.57;100.00
3434;BME280;1730;41.932;25.548;2023-06-14T03:40:44;99269.09;;;20.87;100.00
3434;BME280;1730;41.932;25.548;2023-06-14T03:43:10;99228.78;;;20.63;100.00
3434;BME280;1730;41.932;25.548;2023-06-14T03:45:36;99227.81;;;20.51;100.00
3434;BME280;1730;41.932;25.548;2023-06-14T03:48:02;99219.75;;;20.87;100.00
3434;BME280;1730;41.932;25.548;2023-06-14T03:50:29;99200.16;;;21.08;100.00
3434;BME280;1730;41.932;25.548;2023-06-14T03:52:54;99134.47;;;21.20;100.00
3434;BME280;1730;41.932;25.548;2023-06-14T03:55:24;99123.87;;;21.60;100.00
3434;BME280;1730;41.932;25.548;2023-06-14T03:57:57;99090.44;;;21.99;100.00
3434;BME280;1730;41.932;25.548;2023-06-14T04:00:29;99024.75;;;21.38;100.00
3434;BME280;1730;41.932;25.548;2023-06-14T04:02:55;99061.78;;;21.77;100.00
3434;BME280;1730;41.932;25.548;2023-06-14T04:05:21;99060.00;;;21.53;100.00
3434;BME280;1730;41.932;25.548;2023-06-14T04:07:46;99062.81;;;21.46;100.00
3434;BME280;1730;41.932;25.548;2023-06-14T04:10:14;99085.63;;;21.10;100.00
3434;BME280;1730;41.932;25.548;2023-06-14T04:12:40;99115.09;;;21.15;100.00
3434;BME280;1730;41.932;25.548;2023-06-14T04:15:06;98815.12;;;19.03;100.00
3434;BME280;1730;41.932;25.548;2023-06-14T04:17:33;99155.87;;;20.87;100.00
3434;BME280;1730;41.932;25.548;2023-06-14T04:20:00;99167.59;;;20.94;100.00
3434;BME280;1730;41.932;25.548;2023-06-14T04:22:26;98976.00;;;19.44;100.00
3434;BME280;1730;41.932;25.548;2023-06-14T04:24:56;99130.22;;;20.18;100.00
3434;BME280;1730;41.932;25.548;2023-06-14T04:27:26;99212.88;;;20.47;100.00
3434;BME280;1730;41.932;25.548;2023-06-14T04:29:53;99244.81;;;20.21;100.00
3434;BME280;1730;41.932;25.548;2023-06-14T04:32:26;99257.19;;;20.37;100.00
3434;BME280;1730;41.932;25.548;2023-06-14T04:34:55;99261.56;;;20.45;100.00
3434;BME280;1730;41.932;25.548;2023-06-14T04:37:24;99264.56;;;20.75;100.00
3434;BME280;1730;41.932;25.548;2023-06-14T04:39:49;99038.25;;;19.79;100.00
3434;BME280;1730;41.932;25.548;2023-06-14T04:42:15;99097.06;;;20.33;100.00
3434;BME280;1730;41.932;25.548;2023-06-14T04:44:44;99170.25;;;20.82;100.00
3434;BME280;1730;41.932;25.548;2023-06-14T04:47:10;99085.91;;;20.35;100.00
3434;BME280;1730;41.932;25.548;2023-06-14T04:49:38;99191.09;;;21.15;100.00
3434;BME280;1730;41.932;25.548;2023-06-14T04:52:04;99099.06;;;21.19;100.00
3434;BME280;1730;41.932;25.548;2023-06-14T04:54:29;99118.94;;;21.98;100.00
3434;BME280;1730;41.932;25.548;2023-06-14T04:56:57;98984.69;;;21.79;100.00
3434;BME280;1730;41.932;25.548;2023-06-14T04:59:22;99019.09;;;22.58;100.00
3434;BME280;1730;41.932;25.548;2023-06-14T05:01:49;99047.87;;;22.43;100.00
3434;BME280;1730;41.932;25.548;2023-06-14T05:04:15;99011.06;;;23.54;100.00
3434;BME280;1730;41.932;25.548;2023-06-14T05:06:44;98985.16;;;25.00;100.00
3434;BME280;1730;41.932;25.548;2023-06-14T05:09:14;98940.59;;;25.35;100.00
3434;BME280;1730;41.932;25.548;2023-06-14T05:11:40;98911.13;;;25.19;100.00
3434;BME280;1730;41.932;25.548;2023-06-14T05:14:07;98931.25;;;24.93;100.00
3434;BME280;1730;41.932;25.548;2023-06-14T05:16:32;98918.63;;;25.24;100.00
3434;BME280;1730;41.932;25.548;2023-06-14T05:18:58;98907.94;;;26.50;100.00
3434;BME280;1730;41.932;25.548;2023-06-14T05:21:24;98794.84;;;26.58;100.00
3434;BME280;1730;41.932;25.548;2023-06-14T05:23:49;98727.13;;;25.62;100.00
3434;BME280;1730;41.932;25.548;2023-06-14T05:26:16;98882.38;;;26.84;100.00
3434;BME280;1730;41.932;25.548;2023-06-14T05:28:42;98876.81;;;26.79;100.00
3434;BME280;1730;41.932;25.548;2023-06-14T05:31:07;98805.41;;;25.77;100.00
3434;BME280;1730;41.932;25.548;2023-06-14T05:33:33;98598.69;;;24.48;100.00
3434;BME280;1730;41.932;25.548;2023-06-14T05:35:58;98866.06;;;25.99;100.00
3434;BME280;1730;41.932;25.548;2023-06-14T05:38:24;98890.88;;;25.89;100.00
3434;BME280;1730;41.932;25.548;2023-06-14T05:40:51;98897.38;;;26.46;100.00
3434;BME280;1730;41.932;25.548;2023-06-14T05:43:16;98907.31;;;26.42;100.00
3434;BME280;1730;41.932;25.548;2023-06-14T05:45:42;98901.09;;;25.56;100.00
3434;BME280;1730;41.932;25.548;2023-06-14T05:48:07;98906.00;;;25.81;100.00
3434;BME280;1730;41.932;25.548;2023-06-14T05:50:33;98910.13;;;26.11;100.00
3434;BME280;1730;41.932;25.548;2023-06-14T05:52:59;98911.72;;;26.01;100.00
3434;BME280;1730;41.932;25.548;2023-06-14T05:55:24;98905.16;;;26.13;100.00
3434;BME280;1730;41.932;25.548;2023-06-14T05:57:50;98910.28;;;25.99;100.00
3434;BME280;1730;41.932;25.548;2023-06-14T06:00:16;98908.56;;;25.88;100.00
3434;BME280;1730;41.932;25.548;2023-06-14T06:02:45;98890.22;;;26.51;100.00
3434;BME280;1730;41.932;25.548;2023-06-14T06:05:13;98908.28;;;26.68;100.00
3434;BME280;1730;41.932;25.548;2023-06-14T06:07:39;98916.47;;;26.95;100.00
3434;BME280;1730;41.932;25.548;2023-06-14T06:10:06;98912.09;;;26.52;100.00
3434;BME280;1730;41.932;25.548;2023-06-14T06:12:32;98907.78;;;27.44;100.00
3434;BME280;1730;41.932;25.548;2023-06-14T06:14:59;98905.91;;;27.79;100.00
3434;BME280;1730;41.932;25.548;2023-06-14T06:17:26;98906.47;;;28.32;100.00
3434;BME280;1730;41.932;25.548;2023-06-14T06:19:52;98899.56;;;28.30;100.00
3434;BME280;1730;41.932;25.548;2023-06-14T06:22:17;98885.97;;;27.72;100.00
3434;BME280;1730;41.932;25.548;2023-06-14T06:24:43;98914.13;;;27.29;100.00
3434;BME280;1730;41.932;25.548;2023-06-14T06:27:08;98857.34;;;27.37;100.00
3434;BME280;1730;41.932;25.548;2023-06-14T06:29:34;98909.63;;;26.61;100.00
3434;BME280;1730;41.932;25.548;2023-06-14T06:32:00;98918.28;;;26.74;100.00
3434;BME280;1730;41.932;25.548;2023-06-14T06:34:27;98914.25;;;28.15;100.00
3434;BME280;1730;41.932;25.548;2023-06-14T06:36:53;98907.47;;;27.35;100.00
3434;BME280;1730;41.932;25.548;2023-06-14T06:39:18;98905.91;;;27.59;100.00
3434;BME280;1730;41.932;25.548;2023-06-14T06:41:44;98911.75;;;27.93;100.00
3434;BME280;1730;41.932;25.548;2023-06-14T06:44:09;98912.22;;;27.45;100.00
3434;BME280;1730;41.932;25.548;2023-06-14T06:46:36;98906.97;;;27.48;100.00
3434;BME280;1730;41.932;25.548;2023-06-14T06:49:05;98901.50;;;28.29;100.00
3434;BME280;1730;41.932;25.548;2023-06-14T06:51:31;98910.16;;;27.10;100.00
3434;BME280;1730;41.932;25.548;2023-06-14T06:53:56;98788.56;;;26.21;100.00
3434;BME280;1730;41.932;25.548;2023-06-14T06:56:22;98701.75;;;25.70;100.00
3434;BME280;1730;41.932;25.548;2023-06-14T06:58:49;98905.28;;;26.75;100.00
3434;BME280;1730;41.932;25.548;2023-06-14T07:01:15;98823.53;;;27.34;100.00
3434;BME280;1730;41.932;25.548;2023-06-14T07:03:41;98906.47;;;28.37;100.00
3434;BME280;1730;41.932;25.548;2023-06-14T07:06:06;98902.50;;;27.47;100.00
3434;BME280;1730;41.932;25.548;2023-06-14T07:08:32;98900.81;;;27.26;100.00
3434;BME280;1730;41.932;25.548;2023-06-14T07:10:58;98910.22;;;26.63;100.00
3434;BME280;1730;41.932;25.548;2023-06-14T07:13:23;98903.59;;;26.22;100.00
3434;BME280;1730;41.932;25.548;2023-06-14T07:15:49;98888.37;;;25.34;100.00
3434;BME280;1730;41.932;25.548;2023-06-14T07:18:14;98917.97;;;25.11;100.00
3434;BME280;1730;41.932;25.548;2023-06-14T07:20:41;98893.25;;;25.22;100.00
3434;BME280;1730;41.932;25.548;2023-06-14T07:23:08;98915.88;;;26.04;100.00
3434;BME280;1730;41.932;25.548;2023-06-14T07:25:34;98912.13;;;26.57;100.00
3434;BME280;1730;41.932;25.548;2023-06-14T07:27:59;98921.81;;;25.59;100.00
3434;BME280;1730;41.932;25.548;2023-06-14T07:30:26;98914.41;;;25.65;100.00
3434;BME280;1730;41.932;25.548;2023-06-14T07:32:53;98860.41;;;24.98;100.00
3434;BME280;1730;41.932;25.548;2023-06-14T07:35:18;98878.91;;;25.25;100.00
3434;BME280;1730;41.932;25.548;2023-06-14T07:37:44;98894.91;;;26.97;100.00
3434;BME280;1730;41.932;25.548;2023-06-14T07:40:11;98905.66;;;26.88;100.00
3434;BME280;1730;41.932;25.548;2023-06-14T07:42:36;98891.16;;;27.33;100.00
3434;BME280;1730;41.932;25.548;2023-06-14T07:45:05;98911.75;;;28.34;100.00
3434;BME280;1730;41.932;25.548;2023-06-14T07:47:32;98909.53;;;29.25;100.00
3434;BME280;1730;41.932;25.548;2023-06-14T07:49:58;98877.28;;;28.65;100.00
3434;BME280;1730;41.932;25.548;2023-06-14T07:52:23;98906.19;;;27.78;100.00
3434;BME280;1730;41.932;25.548;2023-06-14T07:54:49;98911.72;;;27.58;100.00
3434;BME280;1730;41.932;25.548;2023-06-14T07:57:14;98906.03;;;28.99;100.00
3434;BME280;1730;41.932;25.548;2023-06-14T07:59:40;98910.37;;;29.31;100.00
3434;BME280;1730;41.932;25.548;2023-06-14T08:02:07;98901.75;;;27.82;100.00
3434;BME280;1730;41.932;25.548;2023-06-14T08:04:32;98883.31;;;27.10;100.00
3434;BME280;1730;41.932;25.548;2023-06-14T08:07:01;98910.53;;;27.33;100.00
3434;BME280;1730;41.932;25.548;2023-06-14T08:09:26;98911.72;;;28.44;100.00
3434;BME280;1730;41.932;25.548;2023-06-14T08:11:53;98874.03;;;27.82;100.00
3434;BME280;1730;41.932;25.548;2023-06-14T08:14:19;98913.84;;;27.35;100.00
3434;BME280;1730;41.932;25.548;2023-06-14T08:16:45;98867.66;;;27.97;100.00
3434;BME280;1730;41.932;25.548;2023-06-14T08:19:10;98916.97;;;27.54;100.00
3434;BME280;1730;41.932;25.548;2023-06-14T08:21:36;98912.09;;;27.09;100.00
3434;BME280;1730;41.932;25.548;2023-06-14T08:24:02;98905.81;;;26.67;100.00
3434;BME280;1730;41.932;25.548;2023-06-14T08:26:27;98915.03;;;27.65;100.00
3434;BME280;1730;41.932;25.548;2023-06-14T08:28:57;98911.50;;;28.10;100.00
3434;BME280;1730;41.932;25.548;2023-06-14T08:31:23;98919.47;;;27.61;100.00
3434;BME280;1730;41.932;25.548;2023-06-14T08:33:49;98917.03;;;27.95;100.00
3434;BME280;1730;41.932;25.548;2023-06-14T08:36:15;98916.91;;;28.96;100.00
3434;BME280;1730;41.932;25.548;2023-06-14T08:38:41;98922.94;;;29.08;100.00
3434;BME280;1730;41.932;25.548;2023-06-14T08:41:07;98921.13;;;28.63;100.00
3434;BME280;1730;41.932;25.548;2023-06-14T08:43:33;98917.19;;;27.43;100.00
3434;BME280;1730;41.932;25.548;2023-06-14T08:46:00;98929.25;;;28.24;100.00
3434;BME280;1730;41.932;25.548;2023-06-14T08:48:27;98926.59;;;28.98;100.00
3434;BME280;1730;41.932;25.548;2023-06-14T08:50:55;98908.12;;;27.62;100.00
3434;BME280;1730;41.932;25.548;2023-06-14T08:53:28;98871.38;;;27.00;100.00
3434;BME280;1730;41.932;25.548;2023-06-14T08:55:58;98931.94;;;27.58;100.00
3434;BME280;1730;41.932;25.548;2023-06-14T08:58:27;98926.44;;;28.04;100.00
3434;BME280;1730;41.932;25.548;2023-06-14T09:00:55;98905.53;;;26.68;100.00
3434;BME280;1730;41.932;25.548;2023-06-14T09:03:21;98926.50;;;27.16;100.00
3434;BME280;1730;41.932;25.548;2023-06-14T09:05:48;98930.84;;;27.59;100.00
3434;BME280;1730;41.932;25.548;2023-06-14T09:08:15;98924.38;;;27.44;100.00
3434;BME280;1730;41.932;25.548;2023-06-14T09:10:41;98929.62;;;27.30;100.00
3434;BME280;1730;41.932;25.548;2023-06-14T09:13:07;98928.16;;;27.12;100.00
3434;BME280;1730;41.932;25.548;2023-06-14T09:15:33;98922.91;;;27.11;100.00
3434;BME280;1730;41.932;25.548;2023-06-14T09:18:01;98923.06;;;27.51;100.00
3434;BME280;1730;41.932;25.548;2023-06-14T09:20:29;98924.47;;;27.69;100.00
3434;BME280;1730;41.932;25.548;2023-06-14T09:22:55;98913.66;;;27.62;100.00
3434;BME280;1730;41.932;25.548;2023-06-14T09:25:21;98887.63;;;28.04;100.00
3434;BME280;1730;41.932;25.548;2023-06-14T09:27:47;98934.19;;;28.73;100.00
3434;BME280;1730;41.932;25.548;2023-06-14T09:30:13;98913.94;;;27.51;100.00
3434;BME280;1730;41.932;25.548;2023-06-14T09:32:39;98915.72;;;27.15;100.00
3434;BME280;1730;41.932;25.548;2023-06-14T09:35:09;98906.84;;;27.03;100.00
3434;BME280;1730;41.932;25.548;2023-06-14T09:37:35;98906.44;;;27.51;100.00
3434;BME280;1730;41.932;25.548;2023-06-14T09:40:03;98907.03;;;27.89;100.00
3434;BME280;1730;41.932;25.548;2023-06-14T09:42:29;98900.62;;;27.63;100.00
3434;BME280;1730;41.932;25.548;2023-06-14T09:44:56;98895.25;;;27.16;100.00
3434;BME280;1730;41.932;25.548;2023-06-14T09:47:22;98894.25;;;26.80;100.00
3434;BME280;1730;41.932;25.548;2023-06-14T09:49:49;98893.41;;;25.95;100.00
3434;BME280;1730;41.932;25.548;2023-06-14T09:52:17;98896.00;;;26.44;100.00
3434;BME280;1730;41.932;25.548;2023-06-14T09:54:44;98850.75;;;25.81;100.00
3434;BME280;1730;41.932;25.548;2023-06-14T09:57:16;98833.38;;;25.54;100.00
3434;BME280;1730;41.932;25.548;2023-06-14T09:59:43;98882.47;;;26.11;100.00
3434;BME280;1730;41.932;25.548;2023-06-14T10:02:31;98883.44;;;26.78;100.00
3434;BME280;1730;41.932;25.548;2023-06-14T10:05:11;98884.44;;;27.14;100.00
3434;BME280;1730;41.932;25.548;2023-06-14T10:10:15;98879.56;;;26.74;100.00
3434;BME280;1730;41.932;25.548;2023-06-14T10:12:40;98879.13;;;26.98;100.00
3434;BME280;1730;41.932;25.548;2023-06-14T10:15:09;98876.56;;;26.81;100.00
3434;BME280;1730;41.932;25.548;2023-06-14T10:17:43;98873.69;;;26.66;100.00
3434;BME280;1730;41.932;25.548;2023-06-14T10:22:52;98881.88;;;26.40;100.00
3434;BME280;1730;41.932;25.548;2023-06-14T10:25:28;98875.97;;;26.79;100.00
3434;BME280;1730;41.932;25.548;2023-06-14T10:31:14;98873.69;;;26.61;100.00
3434;BME280;1730;41.932;25.548;2023-06-14T10:33:55;98867.88;;;27.45;100.00
3434;BME280;1730;41.932;25.548;2023-06-14T10:36:31;98870.72;;;28.20;100.00
3434;BME280;1730;41.932;25.548;2023-06-14T10:39:01;98861.84;;;27.93;100.00
3434;BME280;1730;41.932;25.548;2023-06-14T10:41:29;98854.88;;;27.45;100.00
3434;BME280;1730;41.932;25.548;2023-06-14T10:46:58;98863.75;;;27.52;100.00
3434;BME280;1730;41.932;25.548;2023-06-14T10:49:44;98856.03;;;28.15;100.00
3434;BME280;1730;41.932;25.548;2023-06-14T10:52:21;98867.13;;;27.85;100.00
3434;BME280;1730;41.932;25.548;2023-06-14T11:00:06;98859.63;;;28.15;100.00
3434;BME280;1730;41.932;25.548;2023-06-14T11:05:48;98857.66;;;28.01;100.00
3434;BME280;1730;41.932;25.548;2023-06-14T11:08:51;98857.31;;;27.21;100.00
3434;BME280;1730;41.932;25.548;2023-06-14T11:11:22;98856.31;;;27.58;100.00
3434;BME280;1730;41.932;25.548;2023-06-14T11:13:51;98852.16;;;28.16;100.00
3434;BME280;1730;41.932;25.548;2023-06-14T11:16:17;98838.56;;;27.94;100.00
3434;BME280;1730;41.932;25.548;2023-06-14T11:18:46;98844.59;;;28.47;100.00
3434;BME280;1730;41.932;25.548;2023-06-14T11:21:15;98811.56;;;28.40;100.00
3434;BME280;1730;41.932;25.548;2023-06-14T11:23:41;98843.72;;;28.56;100.00
3434;BME280;1730;41.932;25.548;2023-06-14T11:26:07;98838.56;;;27.94;100.00
3434;BME280;1730;41.932;25.548;2023-06-14T11:28:37;98753.47;;;27.34;100.00
3434;BME280;1730;41.932;25.548;2023-06-14T11:31:03;98796.41;;;27.97;100.00
3434;BME280;1730;41.932;25.548;2023-06-14T11:33:30;98834.94;;;28.24;100.00
3434;BME280;1730;41.932;25.548;2023-06-14T11:35:55;98838.22;;;28.36;100.00
3434;BME280;1730;41.932;25.548;2023-06-14T11:38:21;98798.09;;;27.83;100.00
3434;BME280;1730;41.932;25.548;2023-06-14T11:40:46;98793.91;;;28.01;100.00
3434;BME280;1730;41.932;25.548;2023-06-14T11:43:12;98815.44;;;28.49;100.00
3434;BME280;1730;41.932;25.548;2023-06-14T11:45:39;98823.56;;;28.00;100.00
3434;BME280;1730;41.932;25.548;2023-06-14T11:48:06;98828.03;;;27.51;100.00
3434;BME280;1730;41.932;25.548;2023-06-14T11:50:31;98832.75;;;27.50;100.00
3434;BME280;1730;41.932;25.548;2023-06-14T11:53:01;98830.19;;;27.39;100.00
3434;BME280;1730;41.932;25.548;2023-06-14T11:55:41;98829.56;;;26.96;100.00
3434;BME280;1730;41.932;25.548;2023-06-14T11:58:10;98817.06;;;26.83;100.00
3434;BME280;1730;41.932;25.548;2023-06-14T12:00:36;98822.66;;;26.94;100.00
3434;BME280;1730;41.932;25.548;2023-06-14T12:03:02;98821.31;;;27.11;100.00
3434;BME280;1730;41.932;25.548;2023-06-14T12:05:28;98770.94;;;27.24;100.00
3434;BME280;1730;41.932;25.548;2023-06-14T12:08:02;98822.16;;;27.27;100.00
3434;BME280;1730;41.932;25.548;2023-06-14T12:10:28;98822.75;;;27.69;100.00
3434;BME280;1730;41.932;25.548;2023-06-14T12:12:58;98823.72;;;28.64;100.00
3434;BME280;1730;41.932;25.548;2023-06-14T12:15:24;98818.78;;;28.46;100.00
3434;BME280;1730;41.932;25.548;2023-06-14T12:17:50;98809.38;;;28.42;100.00
3434;BME280;1730;41.932;25.548;2023-06-14T12:20:16;98810.19;;;28.48;100.00
3434;BME280;1730;41.932;25.548;2023-06-14T12:22:54;98812.16;;;28.27;100.00
3434;BME280;1730;41.932;25.548;2023-06-14T12:25:32;98807.47;;;28.28;100.00
3434;BME280;1730;41.932;25.548;2023-06-14T12:28:03;98723.56;;;27.82;100.00
3434;BME280;1730;41.932;25.548;2023-06-14T12:30:28;98797.22;;;28.08;100.00
3434;BME280;1730;41.932;25.548;2023-06-14T12:33:08;98800.53;;;28.30;100.00
3434;BME280;1730;41.932;25.548;2023-06-14T12:35:34;98806.38;;;28.03;100.00
3434;BME280;1730;41.932;25.548;2023-06-14T12:38:00;98805.84;;;27.91;100.00
3434;BME280;1730;41.932;25.548;2023-06-14T12:40:29;98800.00;;;28.13;100.00
3434;BME280;1730;41.932;25.548;2023-06-14T12:43:14;98706.13;;;27.41;100.00
3434;BME280;1730;41.932;25.548;2023-06-14T12:45:40;98672.09;;;27.20;100.00
3434;BME280;1730;41.932;25.548;2023-06-14T12:48:06;98738.81;;;27.59;100.00
3434;BME280;1730;41.932;25.548;2023-06-14T12:50:34;98787.16;;;28.47;100.00
3434;BME280;1730;41.932;25.548;2023-06-14T12:53:00;98751.03;;;28.52;100.00
3434;BME280;1730;41.932;25.548;2023-06-14T12:55:25;98779.44;;;28.93;100.00
3434;BME280;1730;41.932;25.548;2023-06-14T12:57:51;98776.78;;;28.78;100.00
3434;BME280;1730;41.932;25.548;2023-06-14T13:00:17;98773.91;;;28.29;100.00
3434;BME280;1730;41.932;25.548;2023-06-14T13:02:43;98777.78;;;28.23;100.00
3434;BME280;1730;41.932;25.548;2023-06-14T13:05:09;98720.72;;;28.02;100.00
3434;BME280;1730;41.932;25.548;2023-06-14T13:07:35;98749.53;;;28.16;100.00
3434;BME280;1730;41.932;25.548;2023-06-14T13:10:00;98765.28;;;28.31;100.00
3434;BME280;1730;41.932;25.548;2023-06-14T13:12:26;98734.59;;;28.12;100.00
3434;BME280;1730;41.932;25.548;2023-06-14T13:14:51;98726.59;;;27.70;100.00
3434;BME280;1730;41.932;25.548;2023-06-14T13:17:17;98762.25;;;28.27;100.00
3434;BME280;1730;41.932;25.548;2023-06-14T13:19:42;98747.72;;;28.50;100.00
3434;BME280;1730;41.932;25.548;2023-06-14T13:22:08;98609.09;;;27.76;100.00
3434;BME280;1730;41.932;25.548;2023-06-14T13:24:34;98745.94;;;28.80;100.00